sensor_id;sensor_type;location;lat;lon;timestamp;P1;durP1;ratioP1;P2;durP2;ratioP2
15126;SDS011;7664;52.008;4.748;2023-02-14T00:00:07;23.77;;;13.23;;
15126;SDS011;7664;52.008;4.748;2023-02-14T00:02:42;28.38;;;14.88;;
15126;SDS011;7664;52.008;4.748;2023-02-14T00:05:10;25.83;;;14.40;;
15126;SDS011;7664;52.008;4.748;2023-02-14T00:07:44;25.38;;;14.52;;
15126;SDS011;7664;52.008;4.748;2023-02-14T00:10:15;25.10;;;14.00;;
15126;SDS011;7664;52.008;4.748;2023-02-14T00:12:43;23.75;;;13.63;;
15126;SDS011;7664;52.008;4.748;2023-02-14T00:15:14;20.48;;;12.80;;
15126;SDS011;7664;52.008;4.748;2023-02-14T00:17:51;23.70;;;13.35;;
15126;SDS011;7664;52.008;4.748;2023-02-14T00:20:20;22.60;;;13.07;;
15126;SDS011;7664;52.008;4.748;2023-02-14T00:22:51;22.13;;;13.57;;
15126;SDS011;7664;52.008;4.748;2023-02-14T00:25:20;30.80;;;13.65;;
15126;SDS011;7664;52.008;4.748;2023-02-14T00:27:49;23.10;;;13.68;;
15126;SDS011;7664;52.008;4.748;2023-02-14T00:30:19;22.23;;;12.65;;
15126;SDS011;7664;52.008;4.748;2023-02-14T00:32:48;23.33;;;12.98;;
15126;SDS011;7664;52.008;4.748;2023-02-14T00:35:16;22.13;;;12.70;;
15126;SDS011;7664;52.008;4.748;2023-02-14T00:37:45;22.98;;;13.05;;
15126;SDS011;7664;52.008;4.748;2023-02-14T00:40:13;21.58;;;12.57;;
15126;SDS011;7664;52.008;4.748;2023-02-14T00:42:43;20.13;;;12.57;;
15126;SDS011;7664;52.008;4.748;2023-02-14T00:45:16;23.63;;;14.73;;
15126;SDS011;7664;52.008;4.748;2023-02-14T00:47:45;21.80;;;12.77;;
15126;SDS011;7664;52.008;4.748;2023-02-14T00:50:13;23.25;;;12.75;;
15126;SDS011;7664;52.008;4.748;2023-02-14T00:52:43;21.85;;;12.57;;
15126;SDS011;7664;52.008;4.748;2023-02-14T00:55:11;25.40;;;14.13;;
15126;SDS011;7664;52.008;4.748;2023-02-14T00:57:40;21.65;;;12.73;;
15126;SDS011;7664;52.008;4.748;2023-02-14T01:00:10;26.02;;;13.00;;
15126;SDS011;7664;52.008;4.748;2023-02-14T01:02:39;19.17;;;11.77;;
15126;SDS011;7664;52.008;4.748;2023-02-14T01:05:07;22.20;;;12.18;;
15126;SDS011;7664;52.008;4.748;2023-02-14T01:07:38;22.40;;;13.27;;
15126;SDS011;7664;52.008;4.748;2023-02-14T01:10:09;24.05;;;13.90;;
15126;SDS011;7664;52.008;4.748;2023-02-14T01:12:39;21.13;;;13.05;;
15126;SDS011;7664;52.008;4.748;2023-02-14T01:15:08;23.17;;;13.20;;
15126;SDS011;7664;52.008;4.748;2023-02-14T01:17:37;22.15;;;13.30;;
15126;SDS011;7664;52.008;4.748;2023-02-14T01:20:06;18.65;;;12.00;;
15126;SDS011;7664;52.008;4.748;2023-02-14T01:22:35;24.42;;;13.77;;
15126;SDS011;7664;52.008;4.748;2023-02-14T01:25:03;22.10;;;12.65;;
15126;SDS011;7664;52.008;4.748;2023-02-14T01:27:32;20.58;;;12.20;;
15126;SDS011;7664;52.008;4.748;2023-02-14T01:30:00;21.05;;;12.95;;
15126;SDS011;7664;52.008;4.748;2023-02-14T01:32:29;22.30;;;13.20;;
15126;SDS011;7664;52.008;4.748;2023-02-14T01:35:01;23.60;;;14.05;;
15126;SDS011;7664;52.008;4.748;2023-02-14T01:37:29;25.63;;;12.60;;
15126;SDS011;7664;52.008;4.748;2023-02-14T01:39:58;19.55;;;12.30;;
15126;SDS011;7664;52.008;4.748;2023-02-14T01:42:27;24.70;;;12.48;;
15126;SDS011;7664;52.008;4.748;2023-02-14T01:44:57;21.88;;;12.98;;
15126;SDS011;7664;52.008;4.748;2023-02-14T01:47:26;20.15;;;11.95;;
15126;SDS011;7664;52.008;4.748;2023-02-14T01:49:56;22.83;;;12.15;;
15126;SDS011;7664;52.008;4.748;2023-02-14T01:52:27;21.50;;;11.90;;
15126;SDS011;7664;52.008;4.748;2023-02-14T01:55:04;23.08;;;12.00;;
15126;SDS011;7664;52.008;4.748;2023-02-14T01:57:34;22.10;;;11.93;;
15126;SDS011;7664;52.008;4.748;2023-02-14T02:00:04;21.67;;;12.50;;
15126;SDS011;7664;52.008;4.748;2023-02-14T02:02:51;20.52;;;12.15;;
15126;SDS011;7664;52.008;4.748;2023-02-14T02:05:20;18.17;;;11.88;;
15126;SDS011;7664;52.008;4.748;2023-02-14T02:07:52;20.52;;;10.95;;
15126;SDS011;7664;52.008;4.748;2023-02-14T02:10:23;16.38;;;9.77;;
15126;SDS011;7664;52.008;4.748;2023-02-14T02:12:52;17.58;;;10.60;;
15126;SDS011;7664;52.008;4.748;2023-02-14T02:15:21;19.08;;;11.35;;
15126;SDS011;7664;52.008;4.748;2023-02-14T02:17:52;19.77;;;11.85;;
15126;SDS011;7664;52.008;4.748;2023-02-14T02:20:46;17.92;;;10.20;;
15126;SDS011;7664;52.008;4.748;2023-02-14T02:26:21;19.20;;;10.55;;
15126;SDS011;7664;52.008;4.748;2023-02-14T02:29:17;18.48;;;10.05;;
15126;SDS011;7664;52.008;4.748;2023-02-14T02:31:54;20.70;;;10.40;;
15126;SDS011;7664;52.008;4.748;2023-02-14T02:34:35;17.88;;;9.88;;
15126;SDS011;7664;52.008;4.748;2023-02-14T02:37:13;18.13;;;10.77;;
15126;SDS011;7664;52.008;4.748;2023-02-14T02:39:48;17.17;;;10.18;;
15126;SDS011;7664;52.008;4.748;2023-02-14T02:42:22;17.80;;;10.05;;
15126;SDS011;7664;52.008;4.748;2023-02-14T02:44:56;16.77;;;10.02;;
15126;SDS011;7664;52.008;4.748;2023-02-14T02:47:26;18.02;;;9.60;;
15126;SDS011;7664;52.008;4.748;2023-02-14T02:49:57;23.00;;;11.18;;
15126;SDS011;7664;52.008;4.748;2023-02-14T02:52:47;17.17;;;9.70;;
15126;SDS011;7664;52.008;4.748;2023-02-14T02:55:40;16.58;;;9.55;;
15126;SDS011;7664;52.008;4.748;2023-02-14T02:58:26;19.05;;;9.95;;
15126;SDS011;7664;52.008;4.748;2023-02-14T03:00:58;15.80;;;10.02;;
15126;SDS011;7664;52.008;4.748;2023-02-14T03:03:28;16.35;;;9.70;;
15126;SDS011;7664;52.008;4.748;2023-02-14T03:06:14;17.33;;;10.00;;
15126;SDS011;7664;52.008;4.748;2023-02-14T03:08:45;15.55;;;9.73;;
15126;SDS011;7664;52.008;4.748;2023-02-14T03:11:13;16.95;;;9.45;;
15126;SDS011;7664;52.008;4.748;2023-02-14T03:13:51;16.95;;;9.27;;
15126;SDS011;7664;52.008;4.748;2023-02-14T03:16:26;17.48;;;8.73;;
15126;SDS011;7664;52.008;4.748;2023-02-14T03:19:09;14.75;;;8.95;;
15126;SDS011;7664;52.008;4.748;2023-02-14T03:21:58;15.07;;;9.43;;
15126;SDS011;7664;52.008;4.748;2023-02-14T03:24:31;15.70;;;8.82;;
15126;SDS011;7664;52.008;4.748;2023-02-14T03:27:05;14.82;;;9.00;;
15126;SDS011;7664;52.008;4.748;2023-02-14T03:29:38;18.58;;;11.68;;
15126;SDS011;7664;52.008;4.748;2023-02-14T03:32:10;17.55;;;9.73;;
15126;SDS011;7664;52.008;4.748;2023-02-14T03:34:44;15.10;;;10.00;;
15126;SDS011;7664;52.008;4.748;2023-02-14T03:37:14;17.52;;;10.35;;
15126;SDS011;7664;52.008;4.748;2023-02-14T03:39:47;16.92;;;10.27;;
15126;SDS011;7664;52.008;4.748;2023-02-14T03:42:19;16.33;;;9.10;;
15126;SDS011;7664;52.008;4.748;2023-02-14T03:44:48;22.30;;;10.95;;
15126;SDS011;7664;52.008;4.748;2023-02-14T03:47:19;19.48;;;10.75;;
15126;SDS011;7664;52.008;4.748;2023-02-14T03:49:49;17.42;;;9.82;;
15126;SDS011;7664;52.008;4.748;2023-02-14T03:52:18;18.48;;;10.55;;
15126;SDS011;7664;52.008;4.748;2023-02-14T03:54:49;18.17;;;9.55;;
15126;SDS011;7664;52.008;4.748;2023-02-14T03:57:20;16.55;;;9.25;;
15126;SDS011;7664;52.008;4.748;2023-02-14T03:59:50;17.40;;;9.93;;
15126;SDS011;7664;52.008;4.748;2023-02-14T04:02:20;16.05;;;9.35;;
15126;SDS011;7664;52.008;4.748;2023-02-14T04:04:48;16.15;;;8.55;;
15126;SDS011;7664;52.008;4.748;2023-02-14T04:07:18;15.00;;;8.93;;
15126;SDS011;7664;52.008;4.748;2023-02-14T04:09:47;15.05;;;8.73;;
15126;SDS011;7664;52.008;4.748;2023-02-14T04:12:19;14.73;;;8.70;;
15126;SDS011;7664;52.008;4.748;2023-02-14T04:15:03;12.68;;;7.43;;
15126;SDS011;7664;52.008;4.748;2023-02-14T04:17:31;12.40;;;7.68;;
15126;SDS011;7664;52.008;4.748;2023-02-14T04:20:17;12.65;;;7.70;;
15126;SDS011;7664;52.008;4.748;2023-02-14T04:22:49;15.73;;;7.53;;
15126;SDS011;7664;52.008;4.748;2023-02-14T04:25:18;12.02;;;7.00;;
15126;SDS011;7664;52.008;4.748;2023-02-14T04:27:48;12.90;;;7.10;;
15126;SDS011;7664;52.008;4.748;2023-02-14T04:30:16;13.15;;;6.90;;
15126;SDS011;7664;52.008;4.748;2023-02-14T04:32:46;14.45;;;8.10;;
15126;SDS011;7664;52.008;4.748;2023-02-14T04:35:16;11.48;;;7.05;;
15126;SDS011;7664;52.008;4.748;2023-02-14T04:37:45;14.88;;;7.82;;
15126;SDS011;7664;52.008;4.748;2023-02-14T04:40:13;14.55;;;8.20;;
15126;SDS011;7664;52.008;4.748;2023-02-14T04:42:43;14.98;;;7.75;;
15126;SDS011;7664;52.008;4.748;2023-02-14T04:45:14;15.73;;;7.70;;
15126;SDS011;7664;52.008;4.748;2023-02-14T04:47:42;14.63;;;7.28;;
15126;SDS011;7664;52.008;4.748;2023-02-14T04:50:11;13.70;;;7.95;;
15126;SDS011;7664;52.008;4.748;2023-02-14T04:52:39;14.45;;;8.23;;
15126;SDS011;7664;52.008;4.748;2023-02-14T04:55:08;12.10;;;7.53;;
15126;SDS011;7664;52.008;4.748;2023-02-14T04:57:36;14.18;;;8.07;;
15126;SDS011;7664;52.008;4.748;2023-02-14T05:00:05;10.32;;;7.03;;
15126;SDS011;7664;52.008;4.748;2023-02-14T05:02:39;11.25;;;6.90;;
15126;SDS011;7664;52.008;4.748;2023-02-14T05:05:07;11.65;;;7.78;;
15126;SDS011;7664;52.008;4.748;2023-02-14T05:07:37;11.73;;;6.88;;
15126;SDS011;7664;52.008;4.748;2023-02-14T05:10:07;13.63;;;7.60;;
15126;SDS011;7664;52.008;4.748;2023-02-14T05:12:36;13.35;;;8.25;;
15126;SDS011;7664;52.008;4.748;2023-02-14T05:15:04;14.57;;;8.90;;
15126;SDS011;7664;52.008;4.748;2023-02-14T05:17:32;16.90;;;9.23;;
15126;SDS011;7664;52.008;4.748;2023-02-14T05:20:03;16.38;;;7.93;;
15126;SDS011;7664;52.008;4.748;2023-02-14T05:22:31;15.70;;;9.23;;
15126;SDS011;7664;52.008;4.748;2023-02-14T05:25:00;15.35;;;8.60;;
15126;SDS011;7664;52.008;4.748;2023-02-14T05:27:30;15.35;;;9.10;;
15126;SDS011;7664;52.008;4.748;2023-02-14T05:29:59;12.20;;;7.90;;
15126;SDS011;7664;52.008;4.748;2023-02-14T05:32:27;14.05;;;8.55;;
15126;SDS011;7664;52.008;4.748;2023-02-14T05:34:55;12.23;;;8.13;;
15126;SDS011;7664;52.008;4.748;2023-02-14T05:37:27;10.00;;;7.07;;
15126;SDS011;7664;52.008;4.748;2023-02-14T05:39:56;11.88;;;7.38;;
15126;SDS011;7664;52.008;4.748;2023-02-14T05:42:24;11.13;;;7.97;;
15126;SDS011;7664;52.008;4.748;2023-02-14T05:44:52;8.95;;;7.13;;
15126;SDS011;7664;52.008;4.748;2023-02-14T05:47:20;11.05;;;7.32;;
15126;SDS011;7664;52.008;4.748;2023-02-14T05:49:51;10.13;;;7.65;;
15126;SDS011;7664;52.008;4.748;2023-02-14T05:52:20;9.80;;;7.20;;
15126;SDS011;7664;52.008;4.748;2023-02-14T05:54:49;11.68;;;8.27;;
15126;SDS011;7664;52.008;4.748;2023-02-14T05:57:20;11.15;;;8.73;;
15126;SDS011;7664;52.008;4.748;2023-02-14T05:59:48;10.50;;;7.97;;
15126;SDS011;7664;52.008;4.748;2023-02-14T06:02:17;10.30;;;7.47;;
15126;SDS011;7664;52.008;4.748;2023-02-14T06:04:45;10.77;;;8.07;;
15126;SDS011;7664;52.008;4.748;2023-02-14T06:07:14;11.70;;;8.30;;
15126;SDS011;7664;52.008;4.748;2023-02-14T06:09:42;9.32;;;7.40;;
15126;SDS011;7664;52.008;4.748;2023-02-14T06:12:12;10.90;;;8.35;;
15126;SDS011;7664;52.008;4.748;2023-02-14T06:14:41;9.38;;;7.40;;
15126;SDS011;7664;52.008;4.748;2023-02-14T06:17:10;9.98;;;7.90;;
15126;SDS011;7664;52.008;4.748;2023-02-14T06:19:38;10.30;;;7.68;;
15126;SDS011;7664;52.008;4.748;2023-02-14T06:22:08;10.15;;;7.47;;
15126;SDS011;7664;52.008;4.748;2023-02-14T06:24:37;10.43;;;7.70;;
15126;SDS011;7664;52.008;4.748;2023-02-14T06:27:05;10.85;;;8.00;;
15126;SDS011;7664;52.008;4.748;2023-02-14T06:29:35;12.20;;;8.38;;
15126;SDS011;7664;52.008;4.748;2023-02-14T06:32:03;8.85;;;7.68;;
15126;SDS011;7664;52.008;4.748;2023-02-14T06:34:33;9.48;;;6.93;;
15126;SDS011;7664;52.008;4.748;2023-02-14T06:37:01;9.15;;;7.53;;
15126;SDS011;7664;52.008;4.748;2023-02-14T06:39:31;10.05;;;8.02;;
15126;SDS011;7664;52.008;4.748;2023-02-14T06:41:59;8.73;;;7.10;;
15126;SDS011;7664;52.008;4.748;2023-02-14T06:44:28;10.50;;;7.95;;
15126;SDS011;7664;52.008;4.748;2023-02-14T06:46:57;9.88;;;7.55;;
15126;SDS011;7664;52.008;4.748;2023-02-14T06:49:26;10.52;;;7.95;;
15126;SDS011;7664;52.008;4.748;2023-02-14T06:51:56;10.20;;;7.75;;
15126;SDS011;7664;52.008;4.748;2023-02-14T06:54:25;11.35;;;8.35;;
15126;SDS011;7664;52.008;4.748;2023-02-14T06:56:55;12.00;;;8.80;;
15126;SDS011;7664;52.008;4.748;2023-02-14T06:59:24;11.50;;;9.02;;
15126;SDS011;7664;52.008;4.748;2023-02-14T07:01:52;9.40;;;7.68;;
15126;SDS011;7664;52.008;4.748;2023-02-14T07:04:22;12.13;;;9.40;;
15126;SDS011;7664;52.008;4.748;2023-02-14T07:06:51;11.23;;;8.98;;
15126;SDS011;7664;52.008;4.748;2023-02-14T07:09:19;11.05;;;7.90;;
15126;SDS011;7664;52.008;4.748;2023-02-14T07:11:47;11.38;;;8.50;;
15126;SDS011;7664;52.008;4.748;2023-02-14T07:14:16;12.35;;;8.82;;
15126;SDS011;7664;52.008;4.748;2023-02-14T07:16:44;13.52;;;10.00;;
15126;SDS011;7664;52.008;4.748;2023-02-14T07:19:12;11.85;;;9.45;;
15126;SDS011;7664;52.008;4.748;2023-02-14T07:21:42;14.35;;;9.98;;
15126;SDS011;7664;52.008;4.748;2023-02-14T07:24:11;12.65;;;9.07;;
15126;SDS011;7664;52.008;4.748;2023-02-14T07:26:40;19.23;;;10.32;;
15126;SDS011;7664;52.008;4.748;2023-02-14T07:29:10;14.50;;;10.48;;
15126;SDS011;7664;52.008;4.748;2023-02-14T07:31:39;13.98;;;10.13;;
15126;SDS011;7664;52.008;4.748;2023-02-14T07:34:07;14.10;;;10.30;;
15126;SDS011;7664;52.008;4.748;2023-02-14T07:36:36;12.70;;;9.88;;
15126;SDS011;7664;52.008;4.748;2023-02-14T07:39:05;14.73;;;10.40;;
15126;SDS011;7664;52.008;4.748;2023-02-14T07:41:34;14.55;;;9.75;;
15126;SDS011;7664;52.008;4.748;2023-02-14T07:44:08;14.65;;;10.75;;
15126;SDS011;7664;52.008;4.748;2023-02-14T07:46:36;14.80;;;10.25;;
15126;SDS011;7664;52.008;4.748;2023-02-14T07:49:07;15.18;;;10.30;;
15126;SDS011;7664;52.008;4.748;2023-02-14T07:51:38;14.45;;;10.90;;
15126;SDS011;7664;52.008;4.748;2023-02-14T07:54:07;15.02;;;10.85;;
15126;SDS011;7664;52.008;4.748;2023-02-14T07:56:38;15.43;;;10.82;;
15126;SDS011;7664;52.008;4.748;2023-02-14T07:59:07;17.23;;;12.27;;
15126;SDS011;7664;52.008;4.748;2023-02-14T08:01:35;13.32;;;10.15;;
15126;SDS011;7664;52.008;4.748;2023-02-14T08:04:03;17.85;;;13.25;;
15126;SDS011;7664;52.008;4.748;2023-02-14T08:06:32;18.38;;;12.63;;
15126;SDS011;7664;52.008;4.748;2023-02-14T08:09:00;20.38;;;12.85;;
15126;SDS011;7664;52.008;4.748;2023-02-14T08:11:30;18.45;;;11.82;;
15126;SDS011;7664;52.008;4.748;2023-02-14T08:14:16;18.52;;;12.07;;
15126;SDS011;7664;52.008;4.748;2023-02-14T08:16:49;16.88;;;11.52;;
15126;SDS011;7664;52.008;4.748;2023-02-14T08:19:18;20.20;;;13.10;;
15126;SDS011;7664;52.008;4.748;2023-02-14T08:21:47;21.00;;;13.32;;
15126;SDS011;7664;52.008;4.748;2023-02-14T08:24:15;17.80;;;12.52;;
15126;SDS011;7664;52.008;4.748;2023-02-14T08:26:47;20.77;;;13.48;;
15126;SDS011;7664;52.008;4.748;2023-02-14T08:29:15;23.08;;;13.88;;
15126;SDS011;7664;52.008;4.748;2023-02-14T08:31:44;21.40;;;13.57;;
15126;SDS011;7664;52.008;4.748;2023-02-14T08:34:13;24.35;;;14.75;;
15126;SDS011;7664;52.008;4.748;2023-02-14T08:36:41;24.20;;;15.52;;
15126;SDS011;7664;52.008;4.748;2023-02-14T08:39:10;27.25;;;14.88;;
15126;SDS011;7664;52.008;4.748;2023-02-14T08:41:38;22.83;;;14.27;;
15126;SDS011;7664;52.008;4.748;2023-02-14T08:44:08;26.33;;;16.10;;
15126;SDS011;7664;52.008;4.748;2023-02-14T08:46:36;29.23;;;15.35;;
15126;SDS011;7664;52.008;4.748;2023-02-14T08:49:08;25.77;;;16.08;;
15126;SDS011;7664;52.008;4.748;2023-02-14T08:51:39;25.30;;;15.35;;
15126;SDS011;7664;52.008;4.748;2023-02-14T08:54:07;23.60;;;15.90;;
15126;SDS011;7664;52.008;4.748;2023-02-14T08:56:41;29.90;;;17.25;;
15126;SDS011;7664;52.008;4.748;2023-02-14T08:59:11;24.63;;;16.58;;
15126;SDS011;7664;52.008;4.748;2023-02-14T09:01:40;26.95;;;16.77;;
15126;SDS011;7664;52.008;4.748;2023-02-14T09:04:09;31.20;;;18.80;;
15126;SDS011;7664;52.008;4.748;2023-02-14T09:06:40;29.17;;;18.23;;
15126;SDS011;7664;52.008;4.748;2023-02-14T09:09:11;30.63;;;17.38;;
15126;SDS011;7664;52.008;4.748;2023-02-14T09:11:42;33.30;;;17.98;;
15126;SDS011;7664;52.008;4.748;2023-02-14T09:14:12;31.65;;;18.17;;
15126;SDS011;7664;52.008;4.748;2023-02-14T09:16:45;35.95;;;19.15;;
15126;SDS011;7664;52.008;4.748;2023-02-14T09:19:13;36.92;;;19.38;;
15126;SDS011;7664;52.008;4.748;2023-02-14T09:21:44;36.95;;;20.73;;
15126;SDS011;7664;52.008;4.748;2023-02-14T09:24:12;35.05;;;21.38;;
15126;SDS011;7664;52.008;4.748;2023-02-14T09:26:40;41.03;;;23.13;;
15126;SDS011;7664;52.008;4.748;2023-02-14T09:29:09;37.15;;;22.02;;
15126;SDS011;7664;52.008;4.748;2023-02-14T09:31:42;38.08;;;21.95;;
15126;SDS011;7664;52.008;4.748;2023-02-14T09:34:11;42.70;;;24.67;;
15126;SDS011;7664;52.008;4.748;2023-02-14T09:36:40;36.97;;;22.75;;
15126;SDS011;7664;52.008;4.748;2023-02-14T09:39:26;39.72;;;22.60;;
15126;SDS011;7664;52.008;4.748;2023-02-14T09:42:07;40.28;;;22.90;;
15126;SDS011;7664;52.008;4.748;2023-02-14T09:44:37;46.85;;;24.92;;
15126;SDS011;7664;52.008;4.748;2023-02-14T09:47:14;42.75;;;24.38;;
15126;SDS011;7664;52.008;4.748;2023-02-14T09:49:47;44.55;;;23.95;;
15126;SDS011;7664;52.008;4.748;2023-02-14T09:52:17;39.35;;;22.95;;
15126;SDS011;7664;52.008;4.748;2023-02-14T09:54:46;42.53;;;24.10;;
15126;SDS011;7664;52.008;4.748;2023-02-14T09:57:20;39.47;;;23.23;;
15126;SDS011;7664;52.008;4.748;2023-02-14T09:59:52;40.00;;;23.90;;
15126;SDS011;7664;52.008;4.748;2023-02-14T10:02:29;42.00;;;23.08;;
15126;SDS011;7664;52.008;4.748;2023-02-14T10:05:02;38.50;;;21.88;;
15126;SDS011;7664;52.008;4.748;2023-02-14T10:07:36;34.40;;;22.83;;
15126;SDS011;7664;52.008;4.748;2023-02-14T10:10:11;39.28;;;21.08;;
15126;SDS011;7664;52.008;4.748;2023-02-14T10:12:42;41.50;;;22.02;;
15126;SDS011;7664;52.008;4.748;2023-02-14T10:15:13;39.67;;;22.50;;
15126;SDS011;7664;52.008;4.748;2023-02-14T10:17:44;37.85;;;21.85;;
15126;SDS011;7664;52.008;4.748;2023-02-14T10:20:15;38.65;;;22.70;;
15126;SDS011;7664;52.008;4.748;2023-02-14T10:22:48;37.15;;;22.05;;
15126;SDS011;7664;52.008;4.748;2023-02-14T10:25:18;42.13;;;24.35;;
15126;SDS011;7664;52.008;4.748;2023-02-14T10:27:48;43.03;;;24.00;;
15126;SDS011;7664;52.008;4.748;2023-02-14T10:30:17;37.70;;;22.38;;
15126;SDS011;7664;52.008;4.748;2023-02-14T10:32:49;35.08;;;22.80;;
15126;SDS011;7664;52.008;4.748;2023-02-14T10:35:22;43.55;;;23.30;;
15126;SDS011;7664;52.008;4.748;2023-02-14T10:37:55;44.25;;;24.13;;
15126;SDS011;7664;52.008;4.748;2023-02-14T10:40:45;37.58;;;21.75;;
15126;SDS011;7664;52.008;4.748;2023-02-14T10:43:18;40.30;;;22.65;;
15126;SDS011;7664;52.008;4.748;2023-02-14T10:45:52;38.05;;;21.42;;
15126;SDS011;7664;52.008;4.748;2023-02-14T10:48:26;38.08;;;23.63;;
15126;SDS011;7664;52.008;4.748;2023-02-14T10:50:58;39.85;;;23.25;;
15126;SDS011;7664;52.008;4.748;2023-02-14T10:53:30;40.08;;;23.27;;
15126;SDS011;7664;52.008;4.748;2023-02-14T10:56:02;39.03;;;23.35;;
15126;SDS011;7664;52.008;4.748;2023-02-14T10:58:33;37.38;;;23.90;;
15126;SDS011;7664;52.008;4.748;2023-02-14T11:01:04;39.63;;;23.73;;
15126;SDS011;7664;52.008;4.748;2023-02-14T11:03:35;39.58;;;23.48;;
15126;SDS011;7664;52.008;4.748;2023-02-14T11:06:09;35.60;;;24.10;;
15126;SDS011;7664;52.008;4.748;2023-02-14T11:08:38;38.92;;;23.77;;
15126;SDS011;7664;52.008;4.748;2023-02-14T11:11:10;39.40;;;25.63;;
15126;SDS011;7664;52.008;4.748;2023-02-14T11:13:41;35.28;;;24.65;;
15126;SDS011;7664;52.008;4.748;2023-02-14T11:16:10;40.50;;;23.88;;
15126;SDS011;7664;52.008;4.748;2023-02-14T11:18:40;39.40;;;24.95;;
15126;SDS011;7664;52.008;4.748;2023-02-14T11:21:10;37.65;;;24.42;;
15126;SDS011;7664;52.008;4.748;2023-02-14T11:23:40;37.67;;;24.80;;
15126;SDS011;7664;52.008;4.748;2023-02-14T11:26:10;36.38;;;24.27;;
15126;SDS011;7664;52.008;4.748;2023-02-14T11:28:53;38.70;;;22.45;;
15126;SDS011;7664;52.008;4.748;2023-02-14T11:31:24;43.00;;;25.70;;
15126;SDS011;7664;52.008;4.748;2023-02-14T11:33:54;41.05;;;25.88;;
15126;SDS011;7664;52.008;4.748;2023-02-14T11:36:23;37.75;;;23.50;;
15126;SDS011;7664;52.008;4.748;2023-02-14T11:38:55;39.80;;;25.25;;
15126;SDS011;7664;52.008;4.748;2023-02-14T11:41:23;36.10;;;24.38;;
15126;SDS011;7664;52.008;4.748;2023-02-14T11:43:51;39.15;;;24.05;;
15126;SDS011;7664;52.008;4.748;2023-02-14T11:46:41;41.45;;;25.40;;
15126;SDS011;7664;52.008;4.748;2023-02-14T11:49:24;40.63;;;26.08;;
15126;SDS011;7664;52.008;4.748;2023-02-14T11:51:54;36.35;;;24.33;;
15126;SDS011;7664;52.008;4.748;2023-02-14T11:54:26;39.45;;;25.05;;
15126;SDS011;7664;52.008;4.748;2023-02-14T11:56:55;36.13;;;23.08;;
15126;SDS011;7664;52.008;4.748;2023-02-14T11:59:31;39.83;;;25.23;;
15126;SDS011;7664;52.008;4.748;2023-02-14T12:02:01;35.00;;;23.70;;
15126;SDS011;7664;52.008;4.748;2023-02-14T12:04:34;37.92;;;25.23;;
15126;SDS011;7664;52.008;4.748;2023-02-14T12:07:12;37.28;;;24.58;;
15126;SDS011;7664;52.008;4.748;2023-02-14T12:09:41;39.15;;;24.15;;
15126;SDS011;7664;52.008;4.748;2023-02-14T12:12:17;38.53;;;24.70;;
15126;SDS011;7664;52.008;4.748;2023-02-14T12:14:46;37.92;;;24.27;;
15126;SDS011;7664;52.008;4.748;2023-02-14T12:17:17;40.80;;;24.90;;
15126;SDS011;7664;52.008;4.748;2023-02-14T12:19:50;39.75;;;24.80;;
15126;SDS011;7664;52.008;4.748;2023-02-14T12:22:21;39.40;;;24.23;;
15126;SDS011;7664;52.008;4.748;2023-02-14T12:24:56;37.00;;;24.40;;
15126;SDS011;7664;52.008;4.748;2023-02-14T12:27:27;36.30;;;23.05;;
15126;SDS011;7664;52.008;4.748;2023-02-14T12:29:58;33.08;;;21.38;;
15126;SDS011;7664;52.008;4.748;2023-02-14T12:32:30;34.00;;;21.98;;
15126;SDS011;7664;52.008;4.748;2023-02-14T12:35:01;36.15;;;23.65;;
15126;SDS011;7664;52.008;4.748;2023-02-14T12:37:33;34.67;;;23.08;;
15126;SDS011;7664;52.008;4.748;2023-02-14T12:40:10;35.85;;;23.85;;
15126;SDS011;7664;52.008;4.748;2023-02-14T12:42:44;34.47;;;22.75;;
15126;SDS011;7664;52.008;4.748;2023-02-14T12:45:16;35.95;;;22.17;;
15126;SDS011;7664;52.008;4.748;2023-02-14T12:47:48;35.20;;;20.27;;
15126;SDS011;7664;52.008;4.748;2023-02-14T12:50:28;34.13;;;22.60;;
15126;SDS011;7664;52.008;4.748;2023-02-14T12:55:52;38.40;;;23.10;;
15126;SDS011;7664;52.008;4.748;2023-02-14T12:58:28;36.20;;;23.13;;
15126;SDS011;7664;52.008;4.748;2023-02-14T13:01:02;39.90;;;21.77;;
15126;SDS011;7664;52.008;4.748;2023-02-14T13:03:43;34.13;;;23.25;;
15126;SDS011;7664;52.008;4.748;2023-02-14T13:06:17;34.80;;;21.58;;
15126;SDS011;7664;52.008;4.748;2023-02-14T13:08:54;33.05;;;22.23;;
15126;SDS011;7664;52.008;4.748;2023-02-14T13:11:30;34.40;;;23.05;;
15126;SDS011;7664;52.008;4.748;2023-02-14T13:14:02;35.33;;;22.27;;
15126;SDS011;7664;52.008;4.748;2023-02-14T13:16:33;37.28;;;23.95;;
15126;SDS011;7664;52.008;4.748;2023-02-14T13:19:05;34.53;;;21.52;;
15126;SDS011;7664;52.008;4.748;2023-02-14T13:21:38;33.17;;;21.48;;
15126;SDS011;7664;52.008;4.748;2023-02-14T13:24:13;34.78;;;22.10;;
15126;SDS011;7664;52.008;4.748;2023-02-14T13:26:42;33.75;;;20.58;;
15126;SDS011;7664;52.008;4.748;2023-02-14T13:29:15;33.00;;;22.35;;
15126;SDS011;7664;52.008;4.748;2023-02-14T13:31:44;34.03;;;20.92;;
15126;SDS011;7664;52.008;4.748;2023-02-14T13:34:16;31.88;;;21.67;;
15126;SDS011;7664;52.008;4.748;2023-02-14T13:36:49;30.83;;;19.90;;
15126;SDS011;7664;52.008;4.748;2023-02-14T13:39:21;35.35;;;22.77;;
15126;SDS011;7664;52.008;4.748;2023-02-14T13:41:51;32.08;;;20.70;;
15126;SDS011;7664;52.008;4.748;2023-02-14T13:47:07;30.92;;;21.52;;
15126;SDS011;7664;52.008;4.748;2023-02-14T13:49:45;32.67;;;19.88;;
15126;SDS011;7664;52.008;4.748;2023-02-14T13:55:00;31.60;;;20.38;;
15126;SDS011;7664;52.008;4.748;2023-02-14T13:57:31;33.42;;;19.75;;
15126;SDS011;7664;52.008;4.748;2023-02-14T14:00:21;33.58;;;20.75;;
15126;SDS011;7664;52.008;4.748;2023-02-14T14:02:53;29.77;;;19.30;;
15126;SDS011;7664;52.008;4.748;2023-02-14T14:08:16;30.20;;;18.42;;
15126;SDS011;7664;52.008;4.748;2023-02-14T14:10:47;31.90;;;20.02;;
15126;SDS011;7664;52.008;4.748;2023-02-14T14:18:48;28.58;;;19.13;;
15126;SDS011;7664;52.008;4.748;2023-02-14T14:21:20;34.45;;;20.73;;
15126;SDS011;7664;52.008;4.748;2023-02-14T14:24:04;32.83;;;19.77;;
15126;SDS011;7664;52.008;4.748;2023-02-14T14:26:36;30.13;;;19.95;;
15126;SDS011;7664;52.008;4.748;2023-02-14T14:29:09;28.25;;;18.10;;
15126;SDS011;7664;52.008;4.748;2023-02-14T14:31:39;30.90;;;18.50;;
15126;SDS011;7664;52.008;4.748;2023-02-14T14:34:14;32.92;;;20.58;;
15126;SDS011;7664;52.008;4.748;2023-02-14T14:36:44;31.45;;;19.60;;
15126;SDS011;7664;52.008;4.748;2023-02-14T14:39:22;31.30;;;20.58;;
15126;SDS011;7664;52.008;4.748;2023-02-14T14:41:56;27.85;;;18.67;;
15126;SDS011;7664;52.008;4.748;2023-02-14T14:44:34;31.70;;;19.83;;
15126;SDS011;7664;52.008;4.748;2023-02-14T14:47:03;31.00;;;19.83;;
15126;SDS011;7664;52.008;4.748;2023-02-14T14:49:33;31.20;;;19.63;;
15126;SDS011;7664;52.008;4.748;2023-02-14T14:52:01;29.85;;;18.67;;
15126;SDS011;7664;52.008;4.748;2023-02-14T14:54:30;32.10;;;19.30;;
15126;SDS011;7664;52.008;4.748;2023-02-14T14:57:00;30.98;;;19.30;;
15126;SDS011;7664;52.008;4.748;2023-02-14T14:59:29;33.03;;;19.77;;
15126;SDS011;7664;52.008;4.748;2023-02-14T15:02:01;38.50;;;20.33;;
15126;SDS011;7664;52.008;4.748;2023-02-14T15:04:32;30.85;;;19.30;;
15126;SDS011;7664;52.008;4.748;2023-02-14T15:07:15;30.08;;;19.67;;
15126;SDS011;7664;52.008;4.748;2023-02-14T15:09:51;30.73;;;21.10;;
15126;SDS011;7664;52.008;4.748;2023-02-14T15:12:21;32.30;;;21.70;;
15126;SDS011;7664;52.008;4.748;2023-02-14T15:15:08;33.60;;;20.90;;
15126;SDS011;7664;52.008;4.748;2023-02-14T15:17:42;36.63;;;21.63;;
15126;SDS011;7664;52.008;4.748;2023-02-14T15:20:12;29.95;;;19.55;;
15126;SDS011;7664;52.008;4.748;2023-02-14T15:22:42;34.28;;;21.25;;